createdAt,value
2022-12-15T00:02:18.319Z,20.80
2022-12-15T00:05:05.289Z,21.70
2022-12-15T00:07:50.632Z,19.37
2022-12-15T00:10:36.426Z,20.40
2022-12-15T00:13:21.706Z,21.17
2022-12-15T00:16:07.193Z,20.43
2022-12-15T00:18:52.900Z,22.30
2022-12-15T00:21:39.587Z,21.53
2022-12-15T00:24:24.945Z,21.33
2022-12-15T00:27:10.371Z,21.27
2022-12-15T00:29:55.585Z,22.13
2022-12-15T00:32:40.812Z,20.93
2022-12-15T00:35:27.154Z,21.80
2022-12-15T00:38:13.831Z,22.10
2022-12-15T00:40:41.564Z,19.87
2022-12-15T00:43:11.982Z,23.00
2022-12-15T00:45:57.785Z,21.20
2022-12-15T00:48:25.581Z,20.50
2022-12-15T00:50:52.332Z,21.13
2022-12-15T00:53:39.319Z,20.80
2022-12-15T00:56:25.124Z,19.97
2022-12-15T00:59:10.565Z,22.03
2022-12-15T01:01:55.826Z,21.40
2022-12-15T01:04:41.028Z,21.35
2022-12-15T01:07:26.337Z,22.58
2022-12-15T01:10:12.870Z,21.00
2022-12-15T01:12:58.251Z,22.30
2022-12-15T01:15:43.513Z,22.03
2022-12-15T01:18:29.131Z,20.27
2022-12-15T01:20:57.786Z,22.27
2022-12-15T01:23:25.553Z,20.57
2022-12-15T01:25:55.420Z,22.90
2022-12-15T01:28:23.602Z,22.10
2022-12-15T01:30:51.841Z,21.50
2022-12-15T01:33:20.510Z,21.63
2022-12-15T01:35:56.791Z,21.37
2022-12-15T01:38:24.640Z,21.57
2022-12-15T01:40:55.752Z,21.97
2022-12-15T01:43:26.129Z,21.77
2022-12-15T01:45:57.489Z,21.87
2022-12-15T01:48:30.750Z,23.07
2022-12-15T01:51:05.075Z,22.10
2022-12-15T01:53:38.395Z,22.67
2022-12-15T01:56:10.584Z,20.63
2022-12-15T01:58:41.871Z,20.50
2022-12-15T02:01:10.451Z,20.43
2022-12-15T02:03:39.602Z,22.73
2022-12-15T02:06:09.288Z,23.33
2022-12-15T02:08:38.111Z,22.10
2022-12-15T02:11:24.007Z,22.00
2022-12-15T02:14:00.511Z,22.77
2022-12-15T02:16:36.198Z,20.73
2022-12-15T02:19:21.230Z,23.17
2022-12-15T02:22:00.952Z,21.97
2022-12-15T02:24:59.995Z,21.90
2022-12-15T02:27:48.580Z,22.23
2022-12-15T02:30:26.299Z,22.00
2022-12-15T02:33:04.843Z,24.35
2022-12-15T02:35:41.664Z,22.40
2022-12-15T02:38:10.500Z,23.57
2022-12-15T02:40:38.750Z,21.97
2022-12-15T02:43:07.865Z,22.53
2022-12-15T02:45:47.976Z,21.97
2022-12-15T02:48:28.494Z,22.93
2022-12-15T02:51:08.464Z,24.33
2022-12-15T02:53:56.258Z,20.93
2022-12-15T02:56:33.317Z,23.37
2022-12-15T02:59:06.932Z,24.03
2022-12-15T03:01:40.134Z,24.87
2022-12-15T03:04:10.445Z,22.20
2022-12-15T03:06:38.648Z,24.23
2022-12-15T03:09:06.716Z,23.38
2022-12-15T03:11:35.105Z,22.57
2022-12-15T03:14:02.843Z,23.90
2022-12-15T03:16:30.630Z,23.53
2022-12-15T03:18:59.693Z,24.37
2022-12-15T03:21:27.625Z,22.17
2022-12-15T03:23:55.377Z,22.77
2022-12-15T03:26:23.116Z,23.40
2022-12-15T03:28:50.872Z,23.63
2022-12-15T03:31:18.586Z,24.23
2022-12-15T03:33:46.334Z,22.83
2022-12-15T03:36:15.398Z,21.67
2022-12-15T03:38:43.156Z,26.77
2022-12-15T03:41:10.871Z,23.93
2022-12-15T03:43:39.357Z,23.50
2022-12-15T03:46:07.204Z,24.33
2022-12-15T03:48:34.995Z,25.00
2022-12-15T03:51:02.789Z,20.97
2022-12-15T03:53:32.293Z,23.13
2022-12-15T03:56:00.224Z,24.60
2022-12-15T03:58:27.949Z,22.13
2022-12-15T04:00:56.927Z,22.13
2022-12-15T04:03:24.919Z,22.07
2022-12-15T04:05:52.838Z,22.80
2022-12-15T04:08:26.811Z,23.37
2022-12-15T04:10:55.962Z,22.93
2022-12-15T04:13:23.678Z,22.27
2022-12-15T04:15:51.427Z,21.33
2022-12-15T04:18:19.217Z,18.03
2022-12-15T04:20:45.988Z,22.30
2022-12-15T04:23:18.145Z,23.27
2022-12-15T04:26:03.245Z,21.87
2022-12-15T04:28:49.970Z,23.00
2022-12-15T04:31:38.758Z,23.23
2022-12-15T04:34:29.523Z,22.27
2022-12-15T04:37:14.775Z,21.13
2022-12-15T04:40:02.145Z,28.97
2022-12-15T04:42:48.442Z,22.40
2022-12-15T04:45:37.452Z,21.87
2022-12-15T04:48:23.246Z,22.47
2022-12-15T04:51:08.611Z,23.53
2022-12-15T04:53:53.811Z,19.33
2022-12-15T04:56:39.259Z,21.17
2022-12-15T04:59:24.578Z,21.33
2022-12-15T05:02:11.531Z,22.80
2022-12-15T05:04:56.631Z,19.73
2022-12-15T05:07:42.841Z,18.80
2022-12-15T05:10:28.797Z,21.17
2022-12-15T05:13:14.209Z,20.67
2022-12-15T05:15:59.540Z,20.90
2022-12-15T05:18:46.259Z,20.33
2022-12-15T05:21:31.510Z,19.60
2022-12-15T05:24:16.737Z,22.10
2022-12-15T05:27:02.024Z,20.50
2022-12-15T05:29:47.505Z,20.23
2022-12-15T05:32:15.208Z,20.60
2022-12-15T05:34:44.320Z,21.03
2022-12-15T05:37:12.046Z,18.87
2022-12-15T05:39:39.743Z,19.93
2022-12-15T05:42:07.763Z,20.10
2022-12-15T05:44:35.485Z,17.07
2022-12-15T05:47:04.754Z,19.17
2022-12-15T05:49:33.364Z,20.33
2022-12-15T05:52:02.616Z,19.17
2022-12-15T05:54:30.343Z,20.63
2022-12-15T05:56:58.062Z,20.93
2022-12-15T05:59:25.926Z,19.87
2022-12-15T06:01:53.876Z,19.57
2022-12-15T06:04:21.855Z,17.20
2022-12-15T06:06:49.609Z,18.90
2022-12-15T06:09:18.690Z,18.57
2022-12-15T06:11:46.598Z,18.53
2022-12-15T06:14:14.412Z,19.90
2022-12-15T06:16:50.060Z,19.73
2022-12-15T06:19:18.360Z,20.43
2022-12-15T06:21:46.118Z,19.33
2022-12-15T06:24:13.896Z,18.47
2022-12-15T06:26:43.238Z,18.60
2022-12-15T06:29:13.308Z,19.03
2022-12-15T06:31:41.926Z,18.37
2022-12-15T06:34:12.701Z,18.67
2022-12-15T06:36:40.625Z,20.13
2022-12-15T06:39:10.096Z,19.60
2022-12-15T06:41:38.669Z,18.73
2022-12-15T06:44:08.517Z,19.07
2022-12-15T06:46:36.415Z,19.37
2022-12-15T06:49:04.302Z,20.07
2022-12-15T06:51:32.744Z,19.47
2022-12-15T06:54:01.743Z,19.63
2022-12-15T06:56:34.184Z,19.13
2022-12-15T06:59:03.378Z,18.13
2022-12-15T07:01:33.139Z,18.50
2022-12-15T07:04:03.073Z,15.67
2022-12-15T07:06:36.330Z,16.43
2022-12-15T07:09:07.269Z,18.70
2022-12-15T07:11:35.432Z,17.20
2022-12-15T07:14:03.257Z,18.57
2022-12-15T07:16:32.418Z,18.37
2022-12-15T07:19:00.201Z,18.60
2022-12-15T07:21:27.926Z,16.43
2022-12-15T07:23:56.963Z,18.20
2022-12-15T07:26:25.589Z,17.97
2022-12-15T07:28:54.402Z,18.07
2022-12-15T07:31:23.222Z,18.30
2022-12-15T07:33:54.485Z,18.23
2022-12-15T07:36:22.496Z,18.70
2022-12-15T07:38:51.417Z,19.00
2022-12-15T07:41:20.418Z,16.80
2022-12-15T07:43:48.317Z,18.93
2022-12-15T07:46:16.245Z,18.43
2022-12-15T07:48:44.047Z,17.50
2022-12-15T07:51:21.063Z,17.37
2022-12-15T07:53:49.868Z,19.37
2022-12-15T07:56:17.960Z,18.00
2022-12-15T07:58:45.741Z,16.83
2022-12-15T08:01:16.093Z,18.40
2022-12-15T08:03:45.036Z,18.20
2022-12-15T08:06:14.640Z,17.30
2022-12-15T08:08:50.744Z,16.83
2022-12-15T08:11:19.874Z,16.03
2022-12-15T08:14:04.985Z,17.33
2022-12-15T08:16:36.579Z,17.50
2022-12-15T08:19:05.374Z,17.73
2022-12-15T08:21:33.410Z,17.67
2022-12-15T08:24:02.565Z,16.70
2022-12-15T08:26:31.236Z,17.10
2022-12-15T08:29:31.901Z,18.20
2022-12-15T08:31:51.698Z,16.13
2022-12-15T08:34:19.542Z,17.37
2022-12-15T08:36:47.307Z,16.47
2022-12-15T08:39:16.667Z,16.13
2022-12-15T08:41:44.520Z,15.83
2022-12-15T08:44:12.258Z,16.63
2022-12-15T08:46:39.984Z,17.80
2022-12-15T08:49:08.716Z,16.73
2022-12-15T08:51:36.478Z,16.17
2022-12-15T08:54:04.327Z,16.83
2022-12-15T08:56:33.395Z,16.13
2022-12-15T08:59:02.980Z,17.20
2022-12-15T09:01:33.020Z,15.77
2022-12-15T09:04:02.109Z,14.90
2022-12-15T09:06:31.633Z,15.80
2022-12-15T09:09:02.106Z,16.10
2022-12-15T09:11:31.519Z,16.10
2022-12-15T09:14:00.625Z,15.50
2022-12-15T09:16:28.823Z,13.73
2022-12-15T09:18:58.941Z,13.73
2022-12-15T09:21:29.650Z,11.43
2022-12-15T09:24:00.740Z,13.03
2022-12-15T09:26:30.011Z,12.30
2022-12-15T09:28:58.091Z,11.57
2022-12-15T09:31:29.288Z,12.10
2022-12-15T09:34:00.167Z,9.83
2022-12-15T09:36:30.268Z,12.13
2022-12-15T09:38:57.986Z,10.53
2022-12-15T09:41:28.436Z,12.60
2022-12-15T09:43:59.669Z,12.37
2022-12-15T09:46:43.256Z,11.83
2022-12-15T09:49:17.618Z,10.83
2022-12-15T09:51:51.544Z,11.47
2022-12-15T09:54:32.308Z,11.77
2022-12-15T09:57:03.797Z,11.80
2022-12-15T09:59:36.366Z,10.63
2022-12-15T10:02:29.371Z,10.30
2022-12-15T10:05:06.404Z,12.47
2022-12-15T10:07:41.973Z,11.43
2022-12-15T10:10:17.410Z,11.43
2022-12-15T10:12:57.642Z,12.20
2022-12-15T10:15:32.312Z,13.57
2022-12-15T10:18:06.959Z,11.80
2022-12-15T10:20:34.778Z,12.73
2022-12-15T10:23:12.461Z,11.73
2022-12-15T10:25:40.400Z,9.77
2022-12-15T10:28:22.847Z,10.57
2022-12-15T10:30:58.238Z,12.00
2022-12-15T10:33:32.325Z,10.70
2022-12-15T10:36:00.246Z,11.47
2022-12-15T10:38:37.765Z,12.03
2022-12-15T10:41:07.422Z,11.47
2022-12-15T10:43:37.798Z,11.90
2022-12-15T10:46:13.519Z,11.43
2022-12-15T10:48:43.867Z,12.53
2022-12-15T10:51:24.502Z,12.40
2022-12-15T10:53:54.688Z,11.83
2022-12-15T10:56:32.346Z,11.73
2022-12-15T10:59:02.803Z,11.80
2022-12-15T11:01:33.069Z,11.63
2022-12-15T11:04:02.582Z,11.97
2022-12-15T11:06:33.301Z,12.03
2022-12-15T11:09:10.742Z,12.47
2022-12-15T11:12:12.020Z,13.27
2022-12-15T11:14:45.778Z,14.73
2022-12-15T11:17:17.997Z,13.80
2022-12-15T11:19:56.758Z,13.13
2022-12-15T11:22:38.460Z,14.10
2022-12-15T11:25:16.450Z,13.23
2022-12-15T11:27:46.340Z,14.07
2022-12-15T11:30:16.992Z,14.20
2022-12-15T11:32:48.875Z,13.33
2022-12-15T11:35:23.406Z,13.27
2022-12-15T11:37:57.713Z,12.27
2022-12-15T11:40:36.365Z,14.73
2022-12-15T11:43:21.980Z,12.43
2022-12-15T11:46:02.784Z,12.50
2022-12-15T11:48:38.369Z,13.57
2022-12-15T11:51:16.121Z,13.93
2022-12-15T11:54:03.642Z,13.93
2022-12-15T11:56:34.970Z,14.37
2022-12-15T11:59:37.475Z,13.23
2022-12-15T12:02:33.608Z,13.37
2022-12-15T12:05:17.713Z,14.07
2022-12-15T12:07:50.326Z,13.50
2022-12-15T12:10:30.751Z,13.00
2022-12-15T12:13:05.691Z,14.50
2022-12-15T12:15:43.554Z,14.30
2022-12-15T12:18:19.540Z,13.90
2022-12-15T12:20:52.974Z,13.97
2022-12-15T12:23:29.188Z,13.40
2022-12-15T12:26:03.722Z,15.57
2022-12-15T12:28:42.288Z,13.43
2022-12-15T12:31:22.009Z,15.10
2022-12-15T12:33:54.233Z,13.77
2022-12-15T12:36:22.130Z,15.10
2022-12-15T12:38:55.991Z,14.83
2022-12-15T12:41:33.817Z,12.17
2022-12-15T12:44:10.249Z,15.13
2022-12-15T12:46:44.449Z,14.53
2022-12-15T12:49:26.229Z,13.77
2022-12-15T12:51:56.795Z,13.73
2022-12-15T12:54:50.592Z,16.03
2022-12-15T12:57:39.647Z,13.47
2022-12-15T13:00:23.082Z,15.37
2022-12-15T13:03:20.822Z,14.70
2022-12-15T13:05:50.993Z,15.73
2022-12-15T13:08:30.556Z,12.90
2022-12-15T13:11:38.326Z,16.90
2022-12-15T13:14:21.053Z,16.00
2022-12-15T13:17:24.815Z,15.83
2022-12-15T13:20:22.397Z,16.07
2022-12-15T13:22:51.007Z,16.70
2022-12-15T13:25:48.538Z,16.47
2022-12-15T13:28:28.414Z,15.17
2022-12-15T13:31:28.538Z,13.93
2022-12-15T13:34:13.106Z,16.80
2022-12-15T13:36:54.481Z,16.13
2022-12-15T13:39:50.994Z,14.27
2022-12-15T13:42:37.286Z,14.37
2022-12-15T13:45:34.320Z,15.00
2022-12-15T13:48:13.348Z,16.43
2022-12-15T13:50:51.321Z,19.17
2022-12-15T13:53:23.308Z,18.17
2022-12-15T13:56:00.117Z,15.10
2022-12-15T13:58:33.038Z,12.27
2022-12-15T14:01:01.064Z,14.33
2022-12-15T14:03:30.691Z,15.43
2022-12-15T14:06:00.764Z,15.33
2022-12-15T14:08:31.260Z,15.50
2022-12-15T14:11:07.052Z,20.20
2022-12-15T14:13:39.386Z,15.13
2022-12-15T14:16:19.036Z,15.00
2022-12-15T14:19:05.030Z,14.83
2022-12-15T14:21:32.746Z,15.70
2022-12-15T14:24:37.153Z,17.30
2022-12-15T14:26:50.582Z,37.70
2022-12-15T14:29:18.810Z,17.90
2022-12-15T14:31:50.622Z,17.47
2022-12-15T14:34:26.748Z,16.93
2022-12-15T14:36:56.558Z,16.37
2022-12-15T14:39:29.485Z,17.00
2022-12-15T14:41:58.427Z,15.40
2022-12-15T14:44:38.111Z,13.87
2022-12-15T14:47:15.252Z,18.10
2022-12-15T14:49:48.023Z,17.77
2022-12-15T14:52:26.886Z,17.07
2022-12-15T14:54:57.339Z,16.60
2022-12-15T14:57:27.132Z,16.47
2022-12-15T14:59:55.769Z,16.07
2022-12-15T15:02:26.803Z,15.93
2022-12-15T15:05:03.177Z,17.90
2022-12-15T15:07:32.923Z,16.90
2022-12-15T15:10:01.304Z,16.80
2022-12-15T15:12:43.390Z,17.23
2022-12-15T15:15:17.420Z,16.17
2022-12-15T15:17:49.960Z,15.67
2022-12-15T15:20:26.684Z,16.90
2022-12-15T15:23:14.123Z,22.53
2022-12-15T15:25:49.325Z,17.20
2022-12-15T15:28:23.321Z,15.67
2022-12-15T15:30:56.409Z,17.10
2022-12-15T15:33:25.657Z,15.60
2022-12-15T15:35:57.165Z,17.97
2022-12-15T15:38:29.593Z,17.07
2022-12-15T15:41:00.165Z,14.90
2022-12-15T15:43:28.899Z,14.03
2022-12-15T15:46:01.789Z,15.63
2022-12-15T15:48:33.062Z,16.33
2022-12-15T15:51:05.419Z,15.50
2022-12-15T15:53:35.546Z,13.93
2022-12-15T15:56:06.475Z,16.00
2022-12-15T15:58:35.057Z,16.00
2022-12-15T16:01:06.733Z,14.70
2022-12-15T16:03:37.587Z,14.70
2022-12-15T16:06:14.742Z,15.30
2022-12-15T16:08:43.313Z,16.10
2022-12-15T16:11:12.274Z,15.10
2022-12-15T16:13:40.302Z,16.13
2022-12-15T16:16:13.141Z,17.10
2022-12-15T16:18:40.959Z,15.57
2022-12-15T16:21:14.958Z,15.90
2022-12-15T16:23:44.639Z,16.97
2022-12-15T16:26:16.180Z,14.30
2022-12-15T16:28:44.153Z,18.33
2022-12-15T16:31:17.102Z,16.30
2022-12-15T16:33:44.849Z,15.30
2022-12-15T16:36:15.206Z,16.23
2022-12-15T16:38:43.723Z,17.27
2022-12-15T16:41:17.400Z,15.43
2022-12-15T16:43:48.196Z,13.70
2022-12-15T16:46:16.677Z,14.10
2022-12-15T16:48:44.532Z,17.30
2022-12-15T16:51:27.755Z,16.13
2022-12-15T16:53:55.518Z,16.70
2022-12-15T16:56:23.232Z,16.93
2022-12-15T16:58:57.508Z,17.13
2022-12-15T17:01:40.033Z,15.00
2022-12-15T17:04:08.284Z,17.10
2022-12-15T17:06:37.682Z,16.57
2022-12-15T17:09:06.314Z,15.87
2022-12-15T17:11:34.028Z,16.80
2022-12-15T17:14:01.834Z,16.97
2022-12-15T17:16:30.311Z,17.73
2022-12-15T17:18:58.688Z,17.07
2022-12-15T17:21:29.982Z,16.97
2022-12-15T17:24:05.468Z,17.67
2022-12-15T17:26:37.379Z,18.13
2022-12-15T17:29:09.707Z,33.07
2022-12-15T17:31:37.462Z,19.30
2022-12-15T17:34:23.935Z,17.93
2022-12-15T17:36:52.038Z,19.23
2022-12-15T17:39:22.908Z,19.70
2022-12-15T17:42:00.037Z,18.73
2022-12-15T17:44:33.717Z,18.53
2022-12-15T17:47:02.537Z,19.40
2022-12-15T17:49:35.605Z,18.97
2022-12-15T17:52:08.270Z,18.43
2022-12-15T17:54:37.390Z,18.40
2022-12-15T17:57:05.173Z,20.07
2022-12-15T17:59:32.939Z,21.60
2022-12-15T18:02:01.049Z,19.10
2022-12-15T18:04:28.866Z,18.63
2022-12-15T18:07:01.627Z,18.30
2022-12-15T18:09:30.784Z,35.53
2022-12-15T18:11:59.875Z,20.00
2022-12-15T18:14:29.187Z,18.47
2022-12-15T18:16:56.893Z,18.33
2022-12-15T18:19:24.632Z,19.10
2022-12-15T18:21:52.790Z,19.40
2022-12-15T18:24:21.653Z,21.13
2022-12-15T18:26:49.454Z,22.00
2022-12-15T18:29:18.844Z,19.83
2022-12-15T18:31:48.273Z,20.30
2022-12-15T18:34:18.664Z,18.13
2022-12-15T18:36:46.583Z,17.97
2022-12-15T18:39:18.706Z,17.17
2022-12-15T18:41:46.947Z,18.40
2022-12-15T18:44:23.020Z,20.47
2022-12-15T18:46:50.894Z,19.73
2022-12-15T18:49:21.006Z,18.90
2022-12-15T18:51:49.371Z,21.40
2022-12-15T18:54:19.858Z,23.27
2022-12-15T18:56:47.756Z,20.60
2022-12-15T18:59:17.208Z,24.00
2022-12-15T19:01:48.331Z,22.47
2022-12-15T19:04:16.877Z,21.67
2022-12-15T19:06:45.788Z,22.17
2022-12-15T19:09:16.842Z,22.20
2022-12-15T19:12:16.381Z,23.57
2022-12-15T19:14:44.679Z,21.33
2022-12-15T19:17:38.467Z,21.60
2022-12-15T19:20:25.439Z,28.75
2022-12-15T19:22:53.714Z,23.60
2022-12-15T19:25:26.166Z,21.10
2022-12-15T19:27:58.708Z,21.47
2022-12-15T19:30:28.501Z,21.13
2022-12-15T19:32:57.969Z,21.63
2022-12-15T19:35:27.286Z,19.73
2022-12-15T19:38:00.155Z,22.07
2022-12-15T19:40:32.313Z,21.80
2022-12-15T19:43:01.465Z,21.07
2022-12-15T19:45:31.579Z,22.07
2022-12-15T19:48:01.176Z,22.90
2022-12-15T19:50:31.214Z,22.53
2022-12-15T19:53:01.193Z,22.77
2022-12-15T19:55:33.365Z,22.23
2022-12-15T19:58:02.108Z,73.17
2022-12-15T20:00:29.916Z,40.93
2022-12-15T20:02:59.995Z,25.47
2022-12-15T20:05:27.891Z,24.37
2022-12-15T20:07:56.052Z,24.17
2022-12-15T20:10:31.957Z,21.97
2022-12-15T20:13:00.560Z,22.10
2022-12-15T20:15:28.397Z,22.03
2022-12-15T20:17:57.033Z,21.10
2022-12-15T20:20:28.564Z,21.63
2022-12-15T20:23:00.006Z,21.17
2022-12-15T20:25:30.523Z,23.10
2022-12-15T20:28:00.328Z,21.53
2022-12-15T20:30:32.402Z,21.37
2022-12-15T20:33:00.689Z,22.50
2022-12-15T20:35:32.947Z,21.90
2022-12-15T20:38:01.349Z,22.73
2022-12-15T20:40:30.950Z,21.33
2022-12-15T20:42:58.812Z,23.23
2022-12-15T20:45:28.137Z,21.43
2022-12-15T20:47:56.839Z,23.20
2022-12-15T20:50:32.704Z,21.70
2022-12-15T20:53:01.016Z,21.50
2022-12-15T20:55:29.485Z,23.47
2022-12-15T20:57:57.287Z,23.83
2022-12-15T21:00:24.983Z,24.73
2022-12-15T21:02:54.967Z,24.83
2022-12-15T21:05:25.401Z,24.33
2022-12-15T21:07:55.411Z,21.27
2022-12-15T21:10:23.367Z,21.97
2022-12-15T21:12:51.627Z,22.43
2022-12-15T21:15:20.921Z,22.90
2022-12-15T21:17:57.337Z,24.93
2022-12-15T21:20:39.702Z,21.73
2022-12-15T21:23:18.557Z,24.13
2022-12-15T21:25:46.539Z,23.40
2022-12-15T21:28:14.972Z,23.37
2022-12-15T21:30:43.198Z,22.60
2022-12-15T21:33:10.927Z,23.87
2022-12-15T21:35:40.228Z,23.43
2022-12-15T21:38:31.254Z,23.63
2022-12-15T21:41:00.919Z,22.17
2022-12-15T21:43:31.781Z,22.57
2022-12-15T21:46:00.190Z,21.60
2022-12-15T21:48:45.538Z,23.40
2022-12-15T21:51:15.233Z,23.27
2022-12-15T21:53:46.423Z,22.73
2022-12-15T21:56:18.150Z,22.57
2022-12-15T21:58:46.258Z,22.07
2022-12-15T22:01:15.480Z,24.67
2022-12-15T22:03:46.029Z,23.40
2022-12-15T22:06:19.738Z,25.37
2022-12-15T22:08:49.605Z,22.67
2022-12-15T22:11:21.801Z,22.77
2022-12-15T22:13:50.791Z,22.27
2022-12-15T22:16:18.612Z,24.00
2022-12-15T22:18:51.014Z,23.27
2022-12-15T22:21:19.487Z,23.67
2022-12-15T22:23:48.686Z,23.37
2022-12-15T22:26:22.659Z,22.10
2022-12-15T22:28:51.214Z,22.00
2022-12-15T22:31:19.790Z,21.47
2022-12-15T22:33:47.696Z,22.27
2022-12-15T22:36:15.482Z,20.80
2022-12-15T22:38:43.204Z,20.30
2022-12-15T22:41:19.410Z,19.27
2022-12-15T22:43:49.634Z,20.17
2022-12-15T22:46:17.682Z,20.13
2022-12-15T22:48:48.459Z,20.77
2022-12-15T22:51:17.882Z,20.30
2022-12-15T22:53:45.983Z,19.30
2022-12-15T22:56:23.694Z,20.10
2022-12-15T22:58:56.979Z,19.77
2022-12-15T23:01:26.807Z,19.10
2022-12-15T23:03:55.655Z,19.63
2022-12-15T23:06:24.109Z,21.37
2022-12-15T23:08:55.604Z,20.77
2022-12-15T23:11:41.272Z,20.20
2022-12-15T23:14:11.912Z,20.63
2022-12-15T23:16:39.638Z,19.70
2022-12-15T23:19:08.846Z,21.17
2022-12-15T23:21:37.277Z,21.10
2022-12-15T23:24:05.227Z,21.07
2022-12-15T23:26:34.347Z,20.60
2022-12-15T23:29:02.076Z,21.23
2022-12-15T23:31:30.234Z,20.17
2022-12-15T23:33:58.212Z,20.00
2022-12-15T23:36:26.018Z,18.87
2022-12-15T23:38:55.106Z,19.87
2022-12-15T23:41:22.911Z,20.13
2022-12-15T23:43:52.014Z,20.73
2022-12-15T23:46:19.774Z,23.00
2022-12-15T23:48:47.813Z,22.47
2022-12-15T23:51:17.589Z,23.57
2022-12-15T23:53:46.727Z,23.20
2022-12-15T23:56:16.324Z,22.47
2022-12-15T23:58:45.397Z,22.43
